Augusta/Daniel Field, Georgia
Current Conditions -  °F | °C
As of 4:02 PM on Monday 22 Dec 2014 (Local Time) from KDNL Reporting Station
Light Rain Light Rain  
Wind Chill:   Ceiling: 500
Heat Index:   Visibility: 10mi
Dew Point:   Wind: 5mph
Humidity: 100%   Direction: 60°ENE
Pressure: 29.97"   Gusts: NA
Location:  33.47°N, 82.03°W
Report Text: KDNL 222102Z AUTO 06004KT 10SM -RA OVC005 08/08 A2997 RMK AO2 RAB2055 CIG 004V008 P0000 T00830083
Loading
Personal Weather Stations






























Interactive Weather Map New forecast layout! Learn more

10-Day Weather Forecast

Advertisements
Track Severe Weather on mobile